Casper, WY (82602)

3:38 AM MDT on July 25, 2014 (GMT -0600)
North of Casper, WY (KWYBARNU1) Elev 5276 ft | 42.91 °N, 106.35 °W | Change Station
Active Advisory: Fire Weather Warning

Current weather conditions updated 3 minutes ago

Clear
Clear
58.1 °F
Feels Like 58.1 °F
N
0.0
Wind Variable Wind from NNE
Gusts 0.0 mph

Today is forecast to be Cooler than yesterday.

Today
High -- | Low -- °F
--% Chance of Precip.
Yesterday
High -- | Low -- °F
Precip. -- in
5:49 AM 8:33 PM
Waning Crescent, 2% visible
Pressure 29.85 in
Visibility 10.0 miles
Clouds Clear
Dew Point 46 °F
Humidity 63%
Rainfall 0.00 in
Snow Depth Not available.
UV 0 out of 12
Pollen 8.00 out of 12
Air Quality Not available.
Flu Activity Not available.
METAR KCPR 250853Z AUTO 08005KT 10SM CLR 17/09 A3009 RMK AO2 SLP108 T01670089 50019

More Conditions Fewer Conditions

Pressure 29.85 in
Visibility 10.0 miles
Clouds Clear
Dew Point 46 °F
Humidity 63%
Rainfall 0.00 in
Snow Depth Not available.
UV 0 out of 12
Pollen 8.00 out of 12
Air Quality Not available.
Flu Activity Not available.
METAR KCPR 250853Z AUTO 08005KT 10SM CLR 17/09 A3009 RMK AO2 SLP108 T01670089 50019

More Conditions Fewer Conditions

10-Day Weather Forecast

Almanac

Astronomy

Jul. 25, 2014 Rise Set
Actual Time 5:49 AM MDT 8:33 PM MDT
Civil Twilight 5:16 AM MDT 9:06 PM MDT
Nautical Twilight 4:35 AM MDT 9:47 PM MDT
Astronomical Twilight 3:47 AM MDT 10:34 PM MDT
Moon 4:52 AM MDT 7:30 PM MDT
Length of Visible Light 15h 49m
Length of Day
14h 43m
Tomorrow will be 1m 59s shorter.
Waning Crescent, 2% of the Moon is Illuminated
Today
Waning Crescent
Jul 26
New
Aug 3
First Quarter
Aug 10
Full
Aug 17
Last Quarter

Today's Extremes

State Highs State Lows

Community

WunderPhotos

Upload Photos

1,737,276 photos uploaded!

Nearby

Snow Depth

Station Depth Elevation
Casper Mountain 0 in 7850 ft
Reno Hill 0 in 8500 ft
Sand Lake 0 in 10050 ft
Brooklyn Lake 0 in 10220 ft
Cloud Peak Reservoir 0 in 9860 ft

Earthquake Activity

City Distance Mag. Time & Date
No recent earthquake activity has been reported nearby.
Minimum magnitude displayed is 2.5.

Coastal Water Temperatures

Place Temperature
No Stations Reporting

Nearby Weather Stations

Station Location Temp. Dew Point Humidity Wind Precip. Elev Updated Type
HADS NORTH PLATTE RIVER AT CASPER WY, Casper, WY 67 °F - - North  at  - 0.00 in / hr 5100 ft 2:30 AM MDT MADIS
North of Casper, WY, Bar Nunn, WY 58.1 °F 46 °F 63% NNE  at  0.0 mph 0.00 in / hr 5276 ft 3:35 AM MDT Normal
RAWS CASPER MOUNTAIN WY, Casper, WY 60 °F 37 °F 43% ENE  at  6 mph 0.00 in / hr 7740 ft 2:52 AM MDT MADIS

Show More Stations Show Fewer Stations